Time;durP1;ratioP1;P1;durP2;ratioP2;P2;SDS_P1;SDS_P2;PMS_P1;PMS_P2;Temp;Humidity;BMP_temperature;BMP_pressure;BME280_temperature;BME280_humidity;BME280_pressure;Samples;Min_cycle;Max_cycle;Signal;HPM_P1;HPM_P2
2020/12/04 00:01:35;;;;;;;;;;;15.30;99.90;;;14.68;84.35;100268.16;5032257;28;20390;-64
2020/12/04 00:04:03;;;;;;;;;;;15.20;99.90;;;14.59;84.67;100275.59;5033099;28;19955;-64
2020/12/04 00:06:30;;;;;;;;;;;15.20;99.90;;;14.50;84.94;100263.97;5032947;28;19983;-64
2020/12/04 00:08:57;;;;;;;;;;;15.10;99.90;;;14.39;83.82;100257.28;5033377;28;19968;-63
2020/12/04 00:11:24;;;;;;;;;;;14.90;99.90;;;14.36;83.49;100252.50;5032360;28;19925;-65
2020/12/04 00:13:51;;;;;;;;;;;14.90;99.90;;;14.39;83.40;100240.97;5033279;28;20346;-66
2020/12/04 00:16:18;;;;;;;;;;;14.90;99.90;;;14.45;83.87;100235.00;5032841;28;19976;-65
2020/12/04 00:18:46;;;;;;;;;;;14.90;99.90;;;14.52;84.29;100231.78;5033339;28;20345;-66
2020/12/04 00:21:13;;;;;;;;;;;15.00;99.90;;;14.55;85.35;100228.41;5032359;28;19925;-65
2020/12/04 00:23:41;;;;;;;;;;;15.00;99.90;;;14.59;87.18;100230.09;5032955;28;19925;-65
2020/12/04 00:26:08;;;;;;;;;;;15.10;99.90;;;14.59;88.92;100213.78;5032591;28;20342;-65
2020/12/04 00:28:35;;;;;;;;;;;15.20;99.90;;;14.51;90.65;100219.28;5032984;28;19953;-65
2020/12/04 00:31:02;;;;;;;;;;;15.10;99.90;;;14.43;91.50;100201.09;5032017;28;19933;-65
2020/12/04 00:33:29;;;;;;;;;;;15.00;99.90;;;14.32;91.80;100208.81;5032937;28;19971;-64
2020/12/04 00:35:57;;;;;;;;;;;15.00;99.90;;;14.28;91.40;100205.16;5032506;28;19960;-64
2020/12/04 00:38:27;;;;;;;;;;;14.90;99.90;;;14.16;90.25;100189.53;5032073;28;20272;-64
2020/12/04 00:40:54;;;;;;;;;;;14.70;99.90;;;14.12;90.24;100187.81;5032107;28;19980;-64
2020/12/04 00:43:21;;;;;;;;;;;14.60;99.90;;;14.08;88.74;100190.41;5032100;28;19964;-64
2020/12/04 00:45:48;;;;;;;;;;;14.60;99.90;;;14.17;85.81;100182.19;5032099;28;19968;-63
2020/12/04 00:48:15;;;;;;;;;;;14.60;99.90;;;14.30;84.74;100192.03;5032444;28;19995;-64
2020/12/04 00:50:43;;;;;;;;;;;14.70;99.90;;;14.32;83.18;100181.63;5032097;28;19968;-63
2020/12/04 00:53:11;;;;;;;;;;;14.70;99.90;;;14.35;80.69;100178.25;5032461;28;20387;-64
2020/12/04 00:55:38;;;;;;;;;;;14.70;99.90;;;14.40;77.89;100174.56;5032200;28;19929;-64
2020/12/04 00:58:05;;;;;;;;;;;14.70;99.90;;;14.46;78.34;100174.03;5031852;28;19929;-64
2020/12/04 01:00:32;;;;;;;;;;;14.80;99.90;;;14.52;78.53;100171.91;5031970;28;19984;-65
2020/12/04 01:02:59;;;;;;;;;;;14.90;99.90;;;14.54;79.02;100169.66;5032465;28;19948;-64
2020/12/04 01:05:26;;;;;;;;;;;14.90;99.90;;;14.55;79.22;100163.09;5032328;28;19968;-64
2020/12/04 01:07:53;;;;;;;;;;;15.00;99.90;;;14.56;79.47;100167.41;5031915;28;19968;-64
2020/12/04 01:10:22;;;;;;;;;;;15.00;99.90;;;14.57;78.41;100171.72;5031001;28;19952;-64
2020/12/04 01:12:49;;;;;;;;;;;15.00;99.90;;;14.52;77.69;100163.75;5032160;28;19979;-64
2020/12/04 01:15:16;;;;;;;;;;;15.00;99.90;;;14.56;78.15;100151.09;5032427;28;20370;-65
2020/12/04 01:17:43;;;;;;;;;;;14.90;99.90;;;14.51;79.24;100146.63;5031277;28;19995;-65
2020/12/04 01:20:10;;;;;;;;;;;15.00;99.90;;;14.49;80.57;100140.75;5031592;28;20425;-64
2020/12/04 01:22:37;;;;;;;;;;;15.00;99.90;;;14.61;80.26;100135.34;5032266;28;19925;-65
2020/12/04 01:25:04;;;;;;;;;;;15.00;99.90;;;14.56;78.40;100121.16;5032284;28;19963;-64
2020/12/04 01:27:32;;;;;;;;;;;15.00;99.90;;;14.48;74.82;100122.81;5031795;28;19925;-64
2020/12/04 01:30:00;;;;;;;;;;;14.90;99.90;;;14.54;73.93;100116.03;5031711;28;19956;-65
2020/12/04 01:32:27;;;;;;;;;;;14.90;99.90;;;14.56;73.49;100107.56;5032057;28;19925;-64
2020/12/04 01:34:54;;;;;;;;;;;15.00;99.90;;;14.54;72.64;100115.25;5032265;28;20345;-64
2020/12/04 01:37:21;;;;;;;;;;;14.90;99.90;;;14.53;74.47;100103.56;5031697;28;19972;-64
2020/12/04 01:39:48;;;;;;;;;;;14.90;99.90;;;14.56;75.16;100099.41;5031894;28;20359;-64
2020/12/04 01:42:15;;;;;;;;;;;15.00;99.90;;;14.62;76.08;100096.13;5031587;28;19972;-64
2020/12/04 01:44:43;;;;;;;;;;;15.00;99.90;;;14.60;76.80;100100.31;5032111;28;20047;-64
2020/12/04 01:47:10;;;;;;;;;;;15.00;99.90;;;14.62;76.50;100093.41;5031596;28;19972;-67
2020/12/04 01:49:37;;;;;;;;;;;15.10;99.90;;;14.66;75.80;100091.59;5032088;28;19925;-66
2020/12/04 01:52:04;;;;;;;;;;;15.10;99.90;;;14.61;76.26;100085.59;5031206;28;19933;-65
2020/12/04 01:54:33;;;;;;;;;;;15.10;99.90;;;14.59;77.45;100079.69;5031945;28;19977;-66
2020/12/04 01:57:02;;;;;;;;;;;15.10;99.90;;;14.59;77.16;100077.75;5031260;28;19979;-65
2020/12/04 01:59:29;;;;;;;;;;;15.10;99.90;;;14.59;77.21;100077.75;5032094;28;19950;-64
2020/12/04 02:02:06;;;;;;;;;;;15.10;99.90;;;14.61;77.90;100080.94;5031346;28;19979;-64
2020/12/04 02:04:33;;;;;;;;;;;15.10;99.90;;;14.62;78.84;100073.56;5032068;28;19971;-64
2020/12/04 02:07:05;;;;;;;;;;;15.10;99.90;;;14.66;78.86;100074.47;5031400;28;19972;-64
2020/12/04 02:09:34;;;;;;;;;;;15.20;99.90;;;14.63;78.95;100067.00;5032036;28;19926;-65
2020/12/04 02:12:05;;;;;;;;;;;15.20;99.90;;;14.61;79.21;100058.38;5031172;28;19933;-65
2020/12/04 02:14:33;;;;;;;;;;;15.10;99.90;;;14.57;78.45;100055.53;5031866;28;19952;-64
2020/12/04 02:17:05;;;;;;;;;;;15.10;99.90;;;14.54;77.14;100058.91;5031426;28;20374;-65
2020/12/04 02:19:36;;;;;;;;;;;15.00;99.90;;;14.57;77.96;100052.81;5031918;28;19925;-65
2020/12/04 02:22:06;;;;;;;;;;;15.00;99.90;;;14.60;78.63;100051.34;5031876;28;19974;-64
2020/12/04 02:24:34;;;;;;;;;;;15.10;99.90;;;14.53;79.86;100062.75;5035290;28;19925;-64
2020/12/04 02:27:01;;;;;;;;;;;15.10;99.90;;;14.54;80.18;100055.38;5034906;28;19976;-64
2020/12/04 02:29:28;;;;;;;;;;;15.00;99.90;;;14.55;80.99;100046.09;5035137;28;19951;-64
2020/12/04 02:31:55;;;;;;;;;;;15.10;99.90;;;14.55;81.58;100046.09;5034429;28;19979;-64
2020/12/04 02:34:22;;;;;;;;;;;15.10;99.90;;;14.55;81.39;100035.22;5035207;28;19925;-65
2020/12/04 02:36:50;;;;;;;;;;;15.10;99.90;;;14.54;81.32;100034.44;5034711;28;20380;-64
2020/12/04 02:39:18;;;;;;;;;;;15.00;99.90;;;14.54;79.98;100028.97;5034791;28;19925;-64
2020/12/04 02:41:45;;;;;;;;;;;15.00;99.90;;;14.55;77.88;100025.16;5034241;28;19933;-63
2020/12/04 02:44:13;;;;;;;;;;;15.00;99.90;;;14.64;76.70;100023.13;5034986;28;19972;-64
2020/12/04 02:46:40;;;;;;;;;;;15.00;99.90;;;14.75;76.16;100018.03;5034412;28;20338;-64
2020/12/04 02:49:07;;;;;;;;;;;15.10;99.90;;;14.85;77.50;100033.94;5034741;28;19939;-64
2020/12/04 02:51:34;;;;;;;;;;;15.20;99.90;;;14.86;78.82;100021.94;5034069;28;19960;-64
2020/12/04 02:54:01;;;;;;;;;;;15.30;99.90;;;14.86;78.47;100016.50;5034740;28;19929;-66
2020/12/04 02:56:29;;;;;;;;;;;15.30;99.90;;;14.82;77.44;100015.56;5034213;28;19979;-65
2020/12/04 02:58:56;;;;;;;;;;;15.30;99.90;;;14.83;78.90;100017.19;5034395;28;19925;-64
2020/12/04 03:01:23;;;;;;;;;;;15.30;99.90;;;14.80;79.52;100015.13;5033858;28;20354;-64
2020/12/04 03:03:50;;;;;;;;;;;15.30;99.90;;;14.75;80.54;100018.03;5034568;28;19964;-64
2020/12/04 03:06:18;;;;;;;;;;;15.30;99.90;;;14.73;80.88;100002.06;5034273;28;20032;-64
2020/12/04 03:08:45;;;;;;;;;;;15.20;99.90;;;14.70;79.71;99996.50;5033992;28;20334;-64
2020/12/04 03:11:13;;;;;;;;;;;15.20;99.90;;;14.71;78.64;99984.50;5034020;28;19925;-64
2020/12/04 03:13:41;;;;;;;;;;;15.20;99.90;;;14.76;77.06;99986.97;5034494;28;19961;-64
2020/12/04 03:16:08;;;;;;;;;;;15.20;99.90;;;14.80;75.67;99985.19;5034279;28;19929;-64
2020/12/04 03:18:35;;;;;;;;;;;15.30;99.90;;;14.83;76.66;99978.28;5034015;28;20337;-64
2020/12/04 03:21:02;;;;;;;;;;;15.30;99.90;;;14.87;77.70;99981.88;5033062;28;19998;-65
2020/12/04 03:23:29;;;;;;;;;;;15.30;99.90;;;14.85;77.97;99979.50;5034292;28;20366;-64
2020/12/04 03:25:56;;;;;;;;;;;15.40;99.90;;;14.84;77.35;99977.91;5034118;28;19925;-64
2020/12/04 03:28:23;;;;;;;;;;;15.30;99.90;;;14.85;77.30;99965.91;5033734;28;20047;-64
2020/12/04 03:30:52;;;;;;;;;;;15.30;99.90;;;14.89;77.15;99946.97;5033330;28;19926;-64
2020/12/04 03:33:19;;;;;;;;;;;15.40;99.90;;;14.94;77.44;99949.47;5033249;28;19979;-64
2020/12/04 03:35:46;;;;;;;;;;;15.50;99.90;;;15.02;78.40;99951.28;5033664;28;19968;-64
2020/12/04 03:38:15;;;;;;;;;;;15.50;99.90;;;15.08;79.06;99944.47;5033723;28;19929;-64
2020/12/04 03:40:44;;;;;;;;;;;15.60;99.90;;;15.08;76.86;99955.34;5033205;28;19929;-64
2020/12/04 03:43:11;;;;;;;;;;;15.60;99.90;;;15.11;72.68;99939.13;5033841;28;19994;-64
2020/12/04 03:45:38;;;;;;;;;;;15.50;99.90;;;15.06;68.57;99949.47;5033632;28;19968;-64
2020/12/04 03:48:06;;;;;;;;;;;15.50;99.90;;;15.19;71.02;99937.44;5033229;28;19929;-64
2020/12/04 03:50:33;;;;;;;;;;;15.60;99.90;;;15.17;70.71;99956.84;5033182;28;20339;-64
2020/12/04 03:53:01;;;;;;;;;;;15.60;99.90;;;15.18;72.96;99949.47;5033489;28;19957;-64
2020/12/04 03:55:28;;;;;;;;;;;15.60;99.90;;;15.01;76.89;99939.63;5033611;28;19929;-64
2020/12/04 03:57:55;;;;;;;;;;;15.50;99.90;;;14.86;78.35;99932.13;5033250;28;19951;-63
2020/12/04 04:00:22;;;;;;;;;;;15.40;99.90;;;14.73;81.34;99933.22;5032700;28;20405;-64
2020/12/04 04:02:49;;;;;;;;;;;15.30;99.90;;;14.27;82.94;99941.72;5033473;28;19925;-64
2020/12/04 04:05:18;;;;;;;;;;;15.00;99.90;;;14.00;84.52;99943.88;5033407;28;20023;-64
2020/12/04 04:07:45;;;;;;;;;;;14.60;99.90;;;13.90;85.11;99935.31;5033042;28;19933;-64
2020/12/04 04:10:12;;;;;;;;;;;14.50;99.90;;;13.95;85.21;99930.47;5032745;28;19933;-64
2020/12/04 04:12:39;;;;;;;;;;;14.50;99.90;;;13.98;83.21;99916.22;5033286;28;19975;-64
2020/12/04 04:15:06;;;;;;;;;;;14.50;99.90;;;14.06;82.82;99904.50;5033262;28;19964;-64
2020/12/04 04:17:33;;;;;;;;;;;14.50;99.90;;;14.22;83.62;99910.09;5032868;28;19980;-65
2020/12/04 04:20:00;;;;;;;;;;;14.70;99.90;;;14.39;87.77;99904.50;5032603;28;19964;-65
2020/12/04 04:22:31;;;;;;;;;;;14.80;99.90;;;14.26;90.13;99908.28;5033188;28;20326;-65
2020/12/04 04:24:58;;;;;;;;;;;14.70;99.90;;;14.05;92.66;99904.81;5033249;28;19925;-64
2020/12/04 04:27:25;;;;;;;;;;;;;;;13.81;94.26;99910.94;5032596;28;19941;-64
2020/12/04 04:29:53;;;;;;;;;;;14.50;99.90;;;13.71;96.47;99919.50;5032622;28;19968;-65
2020/12/04 04:32:20;;;;;;;;;;;14.30;99.90;;;13.47;95.07;99903.06;5032415;28;19925;-63
2020/12/04 04:34:47;;;;;;;;;;;14.10;99.90;;;13.30;95.98;99898.56;5033056;28;19984;-64
2020/12/04 04:37:14;;;;;;;;;;;13.90;99.90;;;13.32;96.60;99881.94;5032561;28;20337;-64
2020/12/04 04:39:43;;;;;;;;;;;13.90;99.90;;;13.28;95.57;99884.53;5032730;28;19983;-63
2020/12/04 04:42:10;;;;;;;;;;;13.80;99.90;;;13.26;95.35;99885.97;5032284;28;19925;-63
2020/12/04 04:44:38;;;;;;;;;;;13.80;99.90;;;13.29;94.23;99880.66;5032699;28;19954;-66
2020/12/04 04:47:06;;;;;;;;;;;13.80;99.90;;;13.37;93.63;99865.47;5032428;28;20287;-63
2020/12/04 04:49:37;;;;;;;;;;;13.80;99.90;;;13.48;93.33;99866.66;5032612;28;19987;-64
2020/12/04 04:52:06;;;;;;;;;;;13.90;99.90;;;13.53;93.07;99855.56;5031914;28;19929;-67
2020/12/04 04:54:35;;;;;;;;;;;14.00;99.90;;;13.54;92.93;99849.03;5032783;28;19925;-64
2020/12/04 04:57:04;;;;;;;;;;;14.00;99.90;;;13.53;92.41;99847.41;5032334;28;19925;-66
2020/12/04 04:59:31;;;;;;;;;;;14.00;99.90;;;13.55;92.53;99850.63;5032308;28;19925;-63
2020/12/04 05:01:58;;;;;;;;;;;14.00;99.90;;;13.67;92.59;99835.16;5031798;28;19968;-63
2020/12/04 05:04:25;;;;;;;;;;;14.10;99.90;;;13.80;92.06;99846.84;5032622;28;19929;-64
2020/12/04 05:06:52;;;;;;;;;;;14.20;99.90;;;13.90;90.80;99838.28;5032183;28;19964;-63
2020/12/04 05:09:25;;;;;;;;;;;14.30;99.90;;;13.93;89.97;99826.75;5032355;28;19968;-64
2020/12/04 05:11:56;;;;;;;;;;;14.40;99.90;;;14.02;88.46;99819.28;5031624;28;19925;-64
2020/12/04 05:14:25;;;;;;;;;;;14.40;99.90;;;14.17;87.30;99815.13;5032555;28;19929;-64
2020/12/04 05:16:54;;;;;;;;;;;14.60;99.90;;;14.28;87.27;99813.56;5032086;28;19925;-64
2020/12/04 05:19:32;;;;;;;;;;;14.70;99.90;;;14.29;88.64;99825.25;5032454;28;19987;-64
2020/12/04 05:22:09;;;;;;;;;;;14.70;99.90;;;14.19;90.20;99829.97;5031684;28;19964;-65
2020/12/04 05:24:36;;;;;;;;;;;14.70;99.90;;;14.16;91.56;99816.28;5032607;28;19998;-65
2020/12/04 05:27:22;;;;;;;;;;;14.70;99.90;;;14.19;92.48;99812.88;5031863;28;19940;-65
2020/12/04 05:29:50;;;;;;;;;;;14.70;99.90;;;14.19;93.19;99810.16;5031884;28;19925;-65
2020/12/04 05:32:18;;;;;;;;;;;14.70;99.90;;;14.22;93.22;99798.63;5031674;28;19926;-66
2020/12/04 05:34:45;;;;;;;;;;;14.80;99.90;;;14.22;92.13;99810.28;5032235;28;19925;-66
2020/12/04 05:37:13;;;;;;;;;;;14.80;99.90;;;14.22;88.71;99798.63;5031878;28;20024;-65
2020/12/04 05:39:44;;;;;;;;;;;14.70;99.90;;;14.27;87.83;99808.47;5032036;28;19955;-65
2020/12/04 05:42:11;;;;;;;;;;;14.70;99.90;;;14.30;86.22;99794.19;5031451;28;19925;-64
2020/12/04 05:44:54;;;;;;;;;;;14.70;99.90;;;14.31;85.89;99790.34;5032287;28;19925;-64
2020/12/04 05:47:22;;;;;;;;;;;14.70;99.90;;;14.32;85.27;99798.16;5031803;28;20440;-65
2020/12/04 05:49:49;;;;;;;;;;;14.70;99.90;;;14.27;82.92;99792.94;5032256;28;20508;-66
2020/12/04 05:52:17;;;;;;;;;;;14.70;99.90;;;14.36;83.10;99777.34;5031423;28;19925;-64
2020/12/04 05:54:45;;;;;;;;;;;14.80;99.90;;;14.39;81.93;99784.03;5032251;28;19979;-64
2020/12/04 05:57:14;;;;;;;;;;;14.80;99.90;;;14.45;80.21;99782.66;5032790;28;19979;-64
2020/12/04 05:59:41;;;;;;;;;;;14.80;99.90;;;14.51;81.20;99773.94;5035897;28;19979;-64
2020/12/04 06:02:15;;;;;;;;;;;14.90;99.90;;;14.56;82.04;99781.09;5034950;28;19983;-65
2020/12/04 06:04:43;;;;;;;;;;;15.00;99.90;;;14.48;81.40;99774.63;5036036;28;19929;-64
2020/12/04 06:07:13;;;;;;;;;;;14.90;99.90;;;14.47;80.14;99775.75;5035304;28;19925;-64
2020/12/04 06:09:41;;;;;;;;;;;14.90;99.90;;;14.49;79.99;99773.50;5035733;28;19925;-64
2020/12/04 06:12:13;;;;;;;;;;;14.90;99.90;;;14.59;79.09;99764.84;5034681;28;19979;-64
2020/12/04 06:14:40;;;;;;;;;;;15.00;99.90;;;14.61;79.41;99784.38;5035684;28;19979;-64
2020/12/04 06:17:11;;;;;;;;;;;15.00;99.90;;;14.64;77.52;99774.72;5035039;28;19960;-64
2020/12/04 06:19:40;;;;;;;;;;;15.10;99.90;;;14.76;75.37;99772.00;5035492;28;19925;-64
2020/12/04 06:22:09;;;;;;;;;;;15.20;99.90;;;14.91;73.63;99775.94;5034569;28;20367;-65
2020/12/04 06:25:03;;;;;;;;;;;15.20;99.90;;;15.00;73.65;99768.44;5035622;28;20015;-64
2020/12/04 06:27:38;;;;;;;;;;;15.30;99.90;;;15.03;74.67;99773.19;5032488;28;19929;-64
2020/12/04 06:30:06;;;;;;;;;;;15.40;99.90;;;15.05;74.72;99768.19;5034607;28;19929;-65
2020/12/04 06:32:38;;;;;;;;;;;15.40;99.90;;;15.12;75.26;99765.66;5034861;28;19965;-64
2020/12/04 06:35:06;;;;;;;;;;;15.50;99.90;;;15.04;82.87;99777.50;5035220;28;19929;-64
2020/12/04 06:37:38;;;;;;;;;;;15.50;99.90;;;14.62;85.50;99785.94;5034470;28;19937;-65
2020/12/04 06:40:30;;;;;;;;;;;15.30;99.90;;;14.30;90.00;99784.09;5034412;28;19935;-64
2020/12/04 06:42:58;;;;;;;;;;;15.00;99.90;;;14.06;89.86;99784.09;5020114;28;19960;-64
2020/12/04 06:45:26;;;;;;;;;;;14.70;99.90;;;13.89;89.57;99789.72;5034950;28;19926;-66
2020/12/04 06:48:12;;;;;;;;;;;14.50;99.90;;;13.51;86.39;99788.00;5034242;28;20316;-67
2020/12/04 06:50:42;;;;;;;;;;;14.10;99.90;;;13.40;84.46;99789.56;5034242;28;20015;-66
2020/12/04 06:53:11;;;;;;;;;;;13.90;99.90;;;13.48;83.36;99785.97;5034770;28;20106;-65
2020/12/04 06:55:39;;;;;;;;;;;13.90;99.90;;;13.73;84.59;99784.13;5034795;28;19932;-65
2020/12/04 06:58:06;;;;;;;;;;;14.10;99.90;;;13.83;86.99;99796.50;5034186;28;19925;-63
2020/12/04 07:00:34;;;;;;;;;;;14.20;99.90;;;13.71;88.50;99789.09;5034079;28;20443;-64
2020/12/04 07:03:02;;;;;;;;;;;14.20;99.90;;;13.64;89.81;99799.72;5034652;28;19925;-64
2020/12/04 07:05:32;;;;;;;;;;;14.10;99.90;;;13.59;89.63;99780.91;5034614;28;20371;-64
2020/12/04 07:08:05;;;;;;;;;;;14.10;99.90;;;13.53;89.53;99779.53;5034122;28;19925;-64
2020/12/04 07:10:32;;;;;;;;;;;14.00;99.90;;;13.62;89.71;99770.16;5033854;28;19999;-64
2020/12/04 07:13:00;;;;;;;;;;;14.10;99.90;;;13.68;89.65;99763.38;5034470;28;19925;-64
2020/12/04 07:15:27;;;;;;;;;;;14.10;99.90;;;13.80;87.13;99761.84;5034486;28;20267;-64
2020/12/04 07:17:55;;;;;;;;;;;14.20;99.90;;;13.93;86.33;99763.44;5033863;28;19929;-64
2020/12/04 07:20:22;;;;;;;;;;;14.30;99.90;;;14.02;85.93;99773.09;5033678;28;19929;-63
2020/12/04 07:22:49;;;;;;;;;;;14.40;99.90;;;14.11;85.87;99775.69;5034241;28;20361;-64
2020/12/04 07:25:17;;;;;;;;;;;14.50;99.90;;;14.21;87.06;99781.50;5034480;28;19979;-64
2020/12/04 07:27:44;;;;;;;;;;;14.60;99.90;;;14.26;87.73;99772.31;5033517;28;19925;-64
2020/12/04 07:30:15;;;;;;;;;;;14.70;99.90;;;14.13;85.29;99776.19;5033790;28;19929;-64
2020/12/04 07:32:50;;;;;;;;;;;14.60;99.90;;;14.02;86.58;99788.59;5033770;28;19929;-63
2020/12/04 07:35:18;;;;;;;;;;;14.40;99.90;;;13.84;90.62;99785.28;5034185;28;20271;-66
2020/12/04 07:37:45;;;;;;;;;;;14.30;99.90;;;13.61;92.93;99786.81;5033504;28;19933;-63
2020/12/04 07:40:12;;;;;;;;;;;14.20;99.90;;;13.41;95.06;99787.63;5033525;28;19972;-63
2020/12/04 07:42:41;;;;;;;;;;;14.00;99.90;;;13.32;97.03;99773.31;5033633;28;19976;-63
2020/12/04 07:45:08;;;;;;;;;;;13.90;99.90;;;13.27;98.21;99776.25;5033949;28;19925;-63
2020/12/04 07:47:41;;;;;;;;;;;13.90;99.90;;;13.30;99.14;99776.38;5033180;28;20432;-63
2020/12/04 07:50:10;;;;;;;;;;;13.80;99.90;;;13.32;99.35;99773.31;5033261;28;20339;-63
2020/12/04 07:52:49;;;;;;;;;;;13.90;99.90;;;13.37;98.06;99773.94;5033510;28;19925;-63
2020/12/04 07:55:17;;;;;;;;;;;13.90;99.90;;;13.21;94.05;99777.59;5033897;28;20374;-63
2020/12/04 07:57:52;;;;;;;;;;;13.70;99.90;;;13.20;92.63;99790.34;5033107;28;19925;-63
2020/12/04 08:00:19;;;;;;;;;;;13.60;99.90;;;13.11;88.15;99760.56;5033153;28;20306;-64
2020/12/04 08:02:46;;;;;;;;;;;13.50;99.90;;;13.21;86.32;99774.88;5033290;28;19929;-64
2020/12/04 08:05:20;;;;;;;;;;;13.50;99.90;;;13.26;85.95;99771.94;5033641;28;19979;-64
2020/12/04 08:07:51;;;;;;;;;;;13.60;99.90;;;13.39;87.06;99773.59;5032789;28;19936;-64
2020/12/04 08:10:18;;;;;;;;;;;13.70;99.90;;;13.46;87.32;99761.06;5032898;28;19979;-64
2020/12/04 08:12:49;;;;;;;;;;;13.80;99.90;;;13.50;85.79;99778.28;5033124;28;19925;-64
2020/12/04 08:15:17;;;;;;;;;;;13.80;99.90;;;13.68;85.73;99770.75;5033374;28;19925;-65
2020/12/04 08:17:45;;;;;;;;;;;14.00;99.90;;;13.86;84.85;99779.53;5032632;28;19929;-64
2020/12/04 08:20:15;;;;;;;;;;;14.20;99.90;;;13.97;83.87;99758.94;5032199;28;20341;-65
2020/12/04 08:22:47;;;;;;;;;;;14.30;99.90;;;14.01;83.62;99768.00;5033071;28;20461;-63
2020/12/04 08:25:14;;;;;;;;;;;14.40;99.90;;;14.09;83.46;99753.50;5033338;28;19987;-65
2020/12/04 08:27:44;;;;;;;;;;;14.50;99.90;;;14.14;81.40;99747.84;5032499;28;20381;-64
2020/12/04 08:30:15;;;;;;;;;;;14.50;99.90;;;14.20;80.53;99752.72;5032572;28;20314;-64
2020/12/04 08:32:43;;;;;;;;;;;14.60;99.90;;;14.31;81.24;99742.19;5032901;28;20026;-66
2020/12/04 08:35:16;;;;;;;;;;;14.70;99.90;;;14.36;79.69;99769.19;5033027;28;20302;-64
2020/12/04 08:37:43;;;;;;;;;;;14.80;99.90;;;14.24;82.13;99775.38;5032419;28;19995;-64
2020/12/04 08:40:22;;;;;;;;;;;14.70;99.90;;;13.91;83.87;99761.06;5032425;28;20379;-64
2020/12/04 08:42:49;;;;;;;;;;;14.50;99.90;;;13.72;85.94;99760.81;5032705;28;20389;-64
2020/12/04 08:45:24;;;;;;;;;;;14.30;99.90;;;13.73;88.77;99767.84;5032807;28;19979;-64
2020/12/04 08:47:51;;;;;;;;;;;14.20;99.90;;;13.66;88.10;99770.28;5032261;28;19994;-64
2020/12/04 08:50:21;;;;;;;;;;;14.20;99.90;;;13.65;88.03;99769.50;5032196;28;20014;-63
2020/12/04 08:52:50;;;;;;;;;;;14.20;99.90;;;13.63;85.99;99779.91;5032630;28;19925;-63
2020/12/04 08:55:20;;;;;;;;;;;14.10;99.90;;;13.83;85.94;99767.38;5032391;28;20011;-64
2020/12/04 08:57:48;;;;;;;;;;;14.20;99.90;;;13.93;85.43;99777.81;5031921;28;19932;-63
2020/12/04 09:00:18;;;;;;;;;;;14.30;99.90;;;13.99;83.19;99754.72;5032060;28;19979;-64
2020/12/04 09:02:46;;;;;;;;;;;14.40;99.90;;;14.13;81.66;99759.88;5032657;28;19971;-63
2020/12/04 09:05:15;;;;;;;;;;;14.60;99.90;;;14.48;80.44;99760.22;5032434;28;19929;-64
2020/12/04 09:07:43;;;;;;;;;;;14.70;99.90;;;14.48;77.89;99774.63;5031946;28;19983;-64
2020/12/04 09:10:12;;;;;;;;;;;14.80;99.90;;;14.41;77.23;99782.53;5032074;28;19925;-64
2020/12/04 09:12:39;;;;;;;;;;;14.80;99.90;;;14.47;71.80;99762.16;5032524;28;19983;-63
2020/12/04 09:15:07;;;;;;;;;;;14.90;99.90;;;14.74;71.05;99757.94;5032268;28;20448;-64
2020/12/04 09:17:36;;;;;;;;;;;14.90;99.90;;;15.12;67.98;99746.59;5031729;28;20290;-63
2020/12/04 09:20:04;;;;;;;;;;;15.30;99.90;;;15.43;67.94;99754.09;5031773;28;19929;-64
2020/12/04 09:22:31;;;;;;;;;;;15.60;99.90;;;15.44;68.67;99763.88;5032373;28;19964;-64
2020/12/04 09:25:00;;;;;;;;;;;15.80;99.90;;;15.40;72.35;99771.94;5032450;28;19925;-66
2020/12/04 09:27:28;;;;;;;;;;;15.80;99.90;;;15.00;77.41;99796.44;5039333;28;19924;-66
2020/12/04 09:29:55;;;;;;;;;;;15.60;99.90;;;13.99;81.55;99795.50;5052151;28;20031;-66
2020/12/04 09:32:24;;;;;;;;;;;14.80;99.90;;;13.24;86.88;99823.06;5053572;28;20422;-67
2020/12/04 09:34:52;;;;;;;;;;;14.10;99.90;;;12.88;92.21;99813.56;5056416;28;20043;-66
2020/12/04 09:37:24;;;;;;;;;;;13.70;99.90;;;12.76;93.06;99810.75;5056143;28;19931;-65
2020/12/04 09:39:54;;;;;;;;;;;13.50;99.90;;;12.64;92.86;99818.81;5056200;28;20378;-63
2020/12/04 09:42:22;;;;;;;;;;;13.30;99.90;;;12.68;91.71;99814.28;5056044;28;20263;-64
2020/12/04 09:44:49;;;;;;;;;;;13.20;99.90;;;12.89;90.85;99809.69;5056101;28;19925;-63
2020/12/04 09:47:17;;;;;;;;;;;13.30;99.90;;;13.12;89.92;99797.47;5055859;28;20382;-63
2020/12/04 09:49:44;;;;;;;;;;;13.50;99.90;;;13.44;88.49;99808.69;5056106;28;19932;-63
2020/12/04 09:52:13;;;;;;;;;;;13.80;99.90;;;13.59;85.80;99808.06;5055596;28;19978;-63
2020/12/04 09:54:42;;;;;;;;;;;14.00;99.90;;;13.67;82.25;99810.72;5055986;28;19975;-63
2020/12/04 09:57:10;;;;;;;;;;;14.00;99.90;;;13.72;79.22;99785.25;5055633;28;20381;-63
2020/12/04 09:59:38;;;;;;;;;;;14.10;99.90;;;13.89;75.47;99808.75;5055948;28;19925;-63
2020/12/04 10:02:06;;;;;;;;;;;14.20;99.90;;;13.86;74.94;99799.31;5055399;28;19983;-63
2020/12/04 10:04:34;;;;;;;;;;;14.20;99.90;;;13.89;75.48;99800.59;5055882;28;20393;-63
2020/12/04 10:07:01;;;;;;;;;;;14.30;99.90;;;13.76;75.76;99809.84;5055104;28;19929;-63
2020/12/04 10:09:30;;;;;;;;;;;14.20;99.90;;;13.95;77.15;99824.47;5055759;28;20428;-64
2020/12/04 10:11:57;;;;;;;;;;;14.30;99.90;;;13.97;77.67;99814.09;5055237;28;19925;-64
2020/12/04 10:14:25;;;;;;;;;;;14.40;99.90;;;13.78;78.05;99802.94;5055573;28;20382;-63
2020/12/04 10:16:53;;;;;;;;;;;14.30;99.90;;;13.97;78.64;99827.69;5055093;28;19925;-64
2020/12/04 10:19:21;;;;;;;;;;;14.40;99.90;;;14.19;79.28;99800.06;5055514;28;19972;-63
2020/12/04 10:21:49;;;;;;;;;;;14.50;99.90;;;14.26;76.70;99810.38;5054932;28;19925;-63
2020/12/04 10:24:16;;;;;;;;;;;14.60;99.90;;;14.21;74.87;99789.66;5055602;28;19924;-63
2020/12/04 10:26:47;;;;;;;;;;;14.60;99.90;;;14.41;76.01;99795.38;5055057;28;20431;-66
2020/12/04 10:29:15;;;;;;;;;;;14.70;99.90;;;14.31;72.38;99799.31;5055559;28;19928;-65
2020/12/04 10:31:42;;;;;;;;;;;14.70;99.90;;;14.26;72.51;99788.63;5054544;28;20915;-65
2020/12/04 10:34:10;;;;;;;;;;;14.70;99.90;;;14.32;73.25;99770.19;5055465;28;20340;-65
2020/12/04 10:36:37;;;;;;;;;;;14.70;99.90;;;14.45;71.81;99779.94;5054893;28;19978;-65
2020/12/04 10:39:06;;;;;;;;;;;14.80;99.90;;;14.49;71.11;99775.41;5055266;28;19925;-65
2020/12/04 10:41:33;;;;;;;;;;;;;;;14.68;70.92;99789.25;5054573;28;20320;-65
2020/12/04 10:44:03;;;;;;;;;;;15.10;99.90;;;15.02;69.52;99777.81;5054819;28;19968;-65
2020/12/04 10:46:30;;;;;;;;;;;15.30;99.90;;;15.16;69.15;99767.38;5054784;28;19925;-65
2020/12/04 10:48:57;;;;;;;;;;;15.50;99.90;;;15.18;69.66;99756.91;5055111;28;19955;-65
2020/12/04 10:51:25;;;;;;;;;;;15.50;99.90;;;15.18;70.66;99762.38;5054560;28;19982;-65
2020/12/04 10:53:52;;;;;;;;;;;15.60;99.90;;;15.00;68.43;99743.94;5055079;28;19924;-65
2020/12/04 10:56:20;;;;;;;;;;;15.50;99.90;;;14.68;67.06;99743.75;5054684;28;19960;-65
2020/12/04 10:58:47;;;;;;;;;;;15.20;99.90;;;14.48;68.76;99744.69;5054761;28;19951;-64
2020/12/04 11:01:22;;;;;;;;;;;15.00;99.90;;;13.90;72.52;99770.34;5054394;28;20370;-65
2020/12/04 11:06:31;;;;;;;;;;;14.10;99.90;;;13.07;82.61;99770.47;5052869;28;19925;-65
2020/12/04 11:08:58;;;;;;;;;;;13.80;99.90;;;12.93;84.89;99780.00;5054626;28;20325;-65
2020/12/04 11:11:27;;;;;;;;;;;13.50;99.90;;;12.98;87.64;99769.72;5053952;28;19921;-65
2020/12/04 11:13:55;;;;;;;;;;;13.60;99.90;;;12.96;85.57;99763.84;5054725;28;19928;-65
2020/12/04 11:16:23;;;;;;;;;;;13.60;99.90;;;13.00;85.74;99759.38;5054119;28;19929;-65
2020/12/04 11:18:50;;;;;;;;;;;13.60;99.90;;;12.98;85.79;99758.13;5054129;28;19978;-65
2020/12/04 11:21:17;;;;;;;;;;;13.50;99.90;;;13.08;85.85;99744.94;5053985;28;19976;-63
2020/12/04 11:23:44;;;;;;;;;;;13.60;99.90;;;13.11;84.27;99741.56;5054356;28;19951;-63